sensor_id;sensor_type;location;lat;lon;timestamp;P1;durP1;ratioP1;P2;durP2;ratioP2
4909;SDS011;2470;49.868;8.660;2023-07-28T00:02:10;5.60;;;3.38;;
4909;SDS011;2470;49.868;8.660;2023-07-28T00:04:36;3.42;;;2.20;;
4909;SDS011;2470;49.868;8.660;2023-07-28T00:07:02;3.05;;;2.25;;
4909;SDS011;2470;49.868;8.660;2023-07-28T00:09:29;2.47;;;2.08;;
4909;SDS011;2470;49.868;8.660;2023-07-28T00:11:58;4.13;;;1.90;;
4909;SDS011;2470;49.868;8.660;2023-07-28T00:14:25;5.20;;;3.17;;
4909;SDS011;2470;49.868;8.660;2023-07-28T00:16:55;4.47;;;2.70;;
4909;SDS011;2470;49.868;8.660;2023-07-28T00:19:21;3.55;;;2.80;;
4909;SDS011;2470;49.868;8.660;2023-07-28T00:21:47;4.88;;;2.55;;
4909;SDS011;2470;49.868;8.660;2023-07-28T00:24:13;4.28;;;2.58;;
4909;SDS011;2470;49.868;8.660;2023-07-28T00:26:39;3.33;;;2.47;;
4909;SDS011;2470;49.868;8.660;2023-07-28T00:29:05;3.88;;;2.53;;
4909;SDS011;2470;49.868;8.660;2023-07-28T00:31:32;2.90;;;2.05;;
4909;SDS011;2470;49.868;8.660;2023-07-28T00:33:58;2.33;;;1.80;;
4909;SDS011;2470;49.868;8.660;2023-07-28T00:36:23;2.28;;;2.05;;
4909;SDS011;2470;49.868;8.660;2023-07-28T00:38:49;4.57;;;2.33;;
4909;SDS011;2470;49.868;8.660;2023-07-28T00:41:15;2.88;;;2.20;;
4909;SDS011;2470;49.868;8.660;2023-07-28T00:43:40;5.75;;;2.40;;
4909;SDS011;2470;49.868;8.660;2023-07-28T00:46:06;3.22;;;2.30;;
4909;SDS011;2470;49.868;8.660;2023-07-28T00:48:32;3.08;;;2.53;;
4909;SDS011;2470;49.868;8.660;2023-07-28T00:50:57;2.10;;;1.75;;
4909;SDS011;2470;49.868;8.660;2023-07-28T00:53:23;3.58;;;2.35;;
4909;SDS011;2470;49.868;8.660;2023-07-28T00:55:52;3.63;;;2.78;;
4909;SDS011;2470;49.868;8.660;2023-07-28T00:58:18;5.03;;;2.78;;
4909;SDS011;2470;49.868;8.660;2023-07-28T01:00:43;2.92;;;2.50;;
4909;SDS011;2470;49.868;8.660;2023-07-28T01:03:09;4.13;;;2.58;;
4909;SDS011;2470;49.868;8.660;2023-07-28T01:05:40;3.50;;;2.88;;
4909;SDS011;2470;49.868;8.660;2023-07-28T01:08:11;3.72;;;2.60;;
4909;SDS011;2470;49.868;8.660;2023-07-28T01:10:46;3.22;;;2.47;;
4909;SDS011;2470;49.868;8.660;2023-07-28T01:13:11;2.50;;;2.15;;
4909;SDS011;2470;49.868;8.660;2023-07-28T01:15:37;2.65;;;2.30;;
4909;SDS011;2470;49.868;8.660;2023-07-28T01:18:02;2.00;;;1.80;;
4909;SDS011;2470;49.868;8.660;2023-07-28T01:20:29;3.80;;;2.50;;
4909;SDS011;2470;49.868;8.660;2023-07-28T01:26:08;3.35;;;2.60;;
4909;SDS011;2470;49.868;8.660;2023-07-28T01:28:34;2.47;;;2.08;;
4909;SDS011;2470;49.868;8.660;2023-07-28T01:31:01;3.80;;;2.20;;
4909;SDS011;2470;49.868;8.660;2023-07-28T01:33:28;2.53;;;2.28;;
4909;SDS011;2470;49.868;8.660;2023-07-28T01:35:54;3.05;;;2.05;;
4909;SDS011;2470;49.868;8.660;2023-07-28T01:38:19;2.80;;;2.25;;
4909;SDS011;2470;49.868;8.660;2023-07-28T01:40:45;2.78;;;2.30;;
4909;SDS011;2470;49.868;8.660;2023-07-28T01:43:10;3.42;;;2.90;;
4909;SDS011;2470;49.868;8.660;2023-07-28T01:45:36;3.55;;;2.30;;
4909;SDS011;2470;49.868;8.660;2023-07-28T01:48:02;2.65;;;2.05;;
4909;SDS011;2470;49.868;8.660;2023-07-28T01:50:27;4.85;;;2.42;;
4909;SDS011;2470;49.868;8.660;2023-07-28T01:52:53;3.97;;;2.33;;
4909;SDS011;2470;49.868;8.660;2023-07-28T01:55:18;3.60;;;2.72;;
4909;SDS011;2470;49.868;8.660;2023-07-28T01:57:53;4.03;;;2.55;;
4909;SDS011;2470;49.868;8.660;2023-07-28T02:00:20;3.90;;;2.63;;
4909;SDS011;2470;49.868;8.660;2023-07-28T02:02:46;2.97;;;2.25;;
4909;SDS011;2470;49.868;8.660;2023-07-28T02:05:13;5.60;;;2.65;;
4909;SDS011;2470;49.868;8.660;2023-07-28T02:07:38;3.22;;;2.22;;
4909;SDS011;2470;49.868;8.660;2023-07-28T02:10:04;3.47;;;2.50;;
4909;SDS011;2470;49.868;8.660;2023-07-28T02:12:30;4.35;;;2.45;;
4909;SDS011;2470;49.868;8.660;2023-07-28T02:14:56;5.63;;;2.85;;
4909;SDS011;2470;49.868;8.660;2023-07-28T02:17:21;3.00;;;2.22;;
4909;SDS011;2470;49.868;8.660;2023-07-28T02:19:46;5.93;;;3.13;;
4909;SDS011;2470;49.868;8.660;2023-07-28T02:22:12;5.35;;;3.17;;
4909;SDS011;2470;49.868;8.660;2023-07-28T02:24:38;4.40;;;2.40;;
4909;SDS011;2470;49.868;8.660;2023-07-28T02:27:03;3.67;;;2.70;;
4909;SDS011;2470;49.868;8.660;2023-07-28T02:29:29;3.60;;;2.65;;
4909;SDS011;2470;49.868;8.660;2023-07-28T02:31:55;4.82;;;3.50;;
4909;SDS011;2470;49.868;8.660;2023-07-28T02:34:20;3.35;;;2.50;;
4909;SDS011;2470;49.868;8.660;2023-07-28T02:36:46;3.42;;;2.60;;
4909;SDS011;2470;49.868;8.660;2023-07-28T02:39:12;3.03;;;2.55;;
4909;SDS011;2470;49.868;8.660;2023-07-28T02:41:37;3.45;;;3.05;;
4909;SDS011;2470;49.868;8.660;2023-07-28T02:44:03;5.30;;;2.78;;
4909;SDS011;2470;49.868;8.660;2023-07-28T02:46:29;3.78;;;2.90;;
4909;SDS011;2470;49.868;8.660;2023-07-28T02:48:54;3.65;;;2.88;;
4909;SDS011;2470;49.868;8.660;2023-07-28T02:51:19;5.45;;;2.47;;
4909;SDS011;2470;49.868;8.660;2023-07-28T02:53:45;5.43;;;3.13;;
4909;SDS011;2470;49.868;8.660;2023-07-28T02:56:10;6.15;;;3.70;;
4909;SDS011;2470;49.868;8.660;2023-07-28T02:58:36;5.10;;;3.00;;
4909;SDS011;2470;49.868;8.660;2023-07-28T03:01:01;8.07;;;3.47;;
4909;SDS011;2470;49.868;8.660;2023-07-28T03:03:27;4.88;;;2.72;;
4909;SDS011;2470;49.868;8.660;2023-07-28T03:05:52;4.00;;;2.88;;
4909;SDS011;2470;49.868;8.660;2023-07-28T03:08:21;4.63;;;2.53;;
4909;SDS011;2470;49.868;8.660;2023-07-28T03:10:46;4.50;;;2.50;;
4909;SDS011;2470;49.868;8.660;2023-07-28T03:13:12;5.25;;;3.08;;
4909;SDS011;2470;49.868;8.660;2023-07-28T03:15:37;2.53;;;2.33;;
4909;SDS011;2470;49.868;8.660;2023-07-28T03:18:03;6.10;;;2.58;;
4909;SDS011;2470;49.868;8.660;2023-07-28T03:20:28;3.88;;;2.45;;
4909;SDS011;2470;49.868;8.660;2023-07-28T03:22:54;2.42;;;2.22;;
4909;SDS011;2470;49.868;8.660;2023-07-28T03:25:20;2.88;;;2.28;;
4909;SDS011;2470;49.868;8.660;2023-07-28T03:27:45;2.38;;;2.17;;
4909;SDS011;2470;49.868;8.660;2023-07-28T03:30:11;2.78;;;2.33;;
4909;SDS011;2470;49.868;8.660;2023-07-28T03:32:36;2.88;;;2.00;;
4909;SDS011;2470;49.868;8.660;2023-07-28T03:35:02;3.05;;;2.15;;
4909;SDS011;2470;49.868;8.660;2023-07-28T03:37:30;5.10;;;2.70;;
4909;SDS011;2470;49.868;8.660;2023-07-28T03:39:56;2.72;;;2.10;;
4909;SDS011;2470;49.868;8.660;2023-07-28T03:42:22;2.20;;;1.90;;
4909;SDS011;2470;49.868;8.660;2023-07-28T03:44:47;4.53;;;2.50;;
4909;SDS011;2470;49.868;8.660;2023-07-28T03:47:13;3.40;;;2.40;;
4909;SDS011;2470;49.868;8.660;2023-07-28T03:49:38;4.05;;;2.60;;
4909;SDS011;2470;49.868;8.660;2023-07-28T03:52:04;3.22;;;2.08;;
4909;SDS011;2470;49.868;8.660;2023-07-28T03:54:30;3.58;;;2.60;;
4909;SDS011;2470;49.868;8.660;2023-07-28T03:56:55;4.45;;;2.53;;
4909;SDS011;2470;49.868;8.660;2023-07-28T03:59:21;2.92;;;1.75;;
4909;SDS011;2470;49.868;8.660;2023-07-28T04:01:46;3.65;;;2.40;;
4909;SDS011;2470;49.868;8.660;2023-07-28T04:04:12;4.13;;;2.40;;
4909;SDS011;2470;49.868;8.660;2023-07-28T04:09:12;2.78;;;2.13;;
4909;SDS011;2470;49.868;8.660;2023-07-28T04:11:38;3.83;;;1.90;;
4909;SDS011;2470;49.868;8.660;2023-07-28T04:14:04;2.53;;;2.00;;
4909;SDS011;2470;49.868;8.660;2023-07-28T04:16:30;2.50;;;2.30;;
4909;SDS011;2470;49.868;8.660;2023-07-28T04:18:56;3.25;;;2.13;;
4909;SDS011;2470;49.868;8.660;2023-07-28T04:21:21;2.75;;;2.28;;
4909;SDS011;2470;49.868;8.660;2023-07-28T04:23:47;3.30;;;2.30;;
4909;SDS011;2470;49.868;8.660;2023-07-28T04:26:13;5.32;;;2.72;;
4909;SDS011;2470;49.868;8.660;2023-07-28T04:28:38;4.10;;;2.50;;
4909;SDS011;2470;49.868;8.660;2023-07-28T04:31:04;3.55;;;2.33;;
4909;SDS011;2470;49.868;8.660;2023-07-28T04:33:30;3.70;;;2.35;;
4909;SDS011;2470;49.868;8.660;2023-07-28T04:35:55;5.63;;;1.83;;
4909;SDS011;2470;49.868;8.660;2023-07-28T04:38:20;2.65;;;2.10;;
4909;SDS011;2470;49.868;8.660;2023-07-28T04:40:46;3.33;;;2.33;;
4909;SDS011;2470;49.868;8.660;2023-07-28T04:43:11;3.15;;;2.20;;
4909;SDS011;2470;49.868;8.660;2023-07-28T04:45:37;9.00;;;2.60;;
4909;SDS011;2470;49.868;8.660;2023-07-28T04:48:02;3.80;;;2.35;;
4909;SDS011;2470;49.868;8.660;2023-07-28T04:50:28;9.13;;;2.80;;
4909;SDS011;2470;49.868;8.660;2023-07-28T04:52:54;2.78;;;2.40;;
4909;SDS011;2470;49.868;8.660;2023-07-28T04:55:20;2.00;;;1.80;;
4909;SDS011;2470;49.868;8.660;2023-07-28T04:57:45;3.78;;;2.17;;
4909;SDS011;2470;49.868;8.660;2023-07-28T05:00:11;3.67;;;2.50;;
4909;SDS011;2470;49.868;8.660;2023-07-28T05:02:37;1.95;;;1.80;;
4909;SDS011;2470;49.868;8.660;2023-07-28T05:05:03;4.47;;;2.40;;
4909;SDS011;2470;49.868;8.660;2023-07-28T05:07:29;5.13;;;2.72;;
4909;SDS011;2470;49.868;8.660;2023-07-28T05:09:55;2.85;;;2.28;;
4909;SDS011;2470;49.868;8.660;2023-07-28T05:12:20;1.90;;;1.67;;
4909;SDS011;2470;49.868;8.660;2023-07-28T05:14:46;5.38;;;2.45;;
4909;SDS011;2470;49.868;8.660;2023-07-28T05:17:11;3.22;;;2.30;;
4909;SDS011;2470;49.868;8.660;2023-07-28T05:19:37;2.25;;;2.05;;
4909;SDS011;2470;49.868;8.660;2023-07-28T05:22:02;2.30;;;2.08;;
4909;SDS011;2470;49.868;8.660;2023-07-28T05:24:28;2.85;;;2.08;;
4909;SDS011;2470;49.868;8.660;2023-07-28T05:26:54;3.67;;;2.33;;
4909;SDS011;2470;49.868;8.660;2023-07-28T05:29:19;3.78;;;2.20;;
4909;SDS011;2470;49.868;8.660;2023-07-28T05:31:45;2.63;;;2.20;;
4909;SDS011;2470;49.868;8.660;2023-07-28T05:34:10;4.22;;;2.13;;
4909;SDS011;2470;49.868;8.660;2023-07-28T05:36:38;2.65;;;1.95;;
4909;SDS011;2470;49.868;8.660;2023-07-28T05:39:03;2.25;;;2.05;;
4909;SDS011;2470;49.868;8.660;2023-07-28T05:41:29;2.58;;;2.28;;
4909;SDS011;2470;49.868;8.660;2023-07-28T05:43:54;3.35;;;2.40;;
4909;SDS011;2470;49.868;8.660;2023-07-28T05:46:20;3.22;;;2.35;;
4909;SDS011;2470;49.868;8.660;2023-07-28T05:48:45;2.80;;;2.58;;
4909;SDS011;2470;49.868;8.660;2023-07-28T05:51:11;3.40;;;2.15;;
4909;SDS011;2470;49.868;8.660;2023-07-28T05:53:36;3.78;;;1.77;;
4909;SDS011;2470;49.868;8.660;2023-07-28T05:56:02;4.53;;;1.88;;
4909;SDS011;2470;49.868;8.660;2023-07-28T05:58:27;2.75;;;2.15;;
4909;SDS011;2470;49.868;8.660;2023-07-28T06:00:53;2.25;;;1.98;;
4909;SDS011;2470;49.868;8.660;2023-07-28T06:03:18;3.13;;;2.13;;
4909;SDS011;2470;49.868;8.660;2023-07-28T06:05:44;2.42;;;2.17;;
4909;SDS011;2470;49.868;8.660;2023-07-28T06:08:09;2.28;;;1.90;;
4909;SDS011;2470;49.868;8.660;2023-07-28T06:10:35;3.00;;;2.70;;
4909;SDS011;2470;49.868;8.660;2023-07-28T06:13:01;2.38;;;1.85;;
4909;SDS011;2470;49.868;8.660;2023-07-28T06:15:27;2.42;;;2.22;;
4909;SDS011;2470;49.868;8.660;2023-07-28T06:17:52;2.22;;;1.90;;
4909;SDS011;2470;49.868;8.660;2023-07-28T06:20:18;2.88;;;1.98;;
4909;SDS011;2470;49.868;8.660;2023-07-28T06:22:43;3.45;;;2.28;;
4909;SDS011;2470;49.868;8.660;2023-07-28T06:25:09;5.10;;;2.20;;
4909;SDS011;2470;49.868;8.660;2023-07-28T06:27:35;2.00;;;1.80;;
4909;SDS011;2470;49.868;8.660;2023-07-28T06:30:01;2.67;;;1.77;;
4909;SDS011;2470;49.868;8.660;2023-07-28T06:32:27;2.33;;;2.05;;
4909;SDS011;2470;49.868;8.660;2023-07-28T06:34:53;2.53;;;1.83;;
4909;SDS011;2470;49.868;8.660;2023-07-28T06:37:19;1.92;;;1.63;;
4909;SDS011;2470;49.868;8.660;2023-07-28T06:39:45;1.70;;;1.60;;
4909;SDS011;2470;49.868;8.660;2023-07-28T06:42:10;2.92;;;1.50;;
4909;SDS011;2470;49.868;8.660;2023-07-28T06:44:36;2.05;;;1.85;;
4909;SDS011;2470;49.868;8.660;2023-07-28T06:47:02;2.33;;;1.73;;
4909;SDS011;2470;49.868;8.660;2023-07-28T06:49:28;3.25;;;2.35;;
4909;SDS011;2470;49.868;8.660;2023-07-28T06:51:53;3.15;;;1.83;;
4909;SDS011;2470;49.868;8.660;2023-07-28T06:54:19;2.25;;;1.80;;
4909;SDS011;2470;49.868;8.660;2023-07-28T06:56:45;2.33;;;2.10;;
4909;SDS011;2470;49.868;8.660;2023-07-28T06:59:10;2.83;;;2.08;;
4909;SDS011;2470;49.868;8.660;2023-07-28T07:01:36;2.63;;;1.92;;
4909;SDS011;2470;49.868;8.660;2023-07-28T07:04:02;3.15;;;2.33;;
4909;SDS011;2470;49.868;8.660;2023-07-28T07:06:29;4.40;;;2.13;;
4909;SDS011;2470;49.868;8.660;2023-07-28T07:08:55;2.78;;;1.85;;
4909;SDS011;2470;49.868;8.660;2023-07-28T07:11:20;2.03;;;1.92;;
4909;SDS011;2470;49.868;8.660;2023-07-28T07:13:46;1.98;;;1.77;;
4909;SDS011;2470;49.868;8.660;2023-07-28T07:16:15;4.78;;;2.20;;
4909;SDS011;2470;49.868;8.660;2023-07-28T07:18:41;2.35;;;1.92;;
4909;SDS011;2470;49.868;8.660;2023-07-28T07:21:10;2.47;;;1.95;;
4909;SDS011;2470;49.868;8.660;2023-07-28T07:23:36;2.67;;;2.20;;
4909;SDS011;2470;49.868;8.660;2023-07-28T07:26:02;4.65;;;2.80;;
4909;SDS011;2470;49.868;8.660;2023-07-28T07:28:28;2.13;;;1.90;;
4909;SDS011;2470;49.868;8.660;2023-07-28T07:30:54;3.20;;;2.38;;
4909;SDS011;2470;49.868;8.660;2023-07-28T07:33:20;4.65;;;2.15;;
4909;SDS011;2470;49.868;8.660;2023-07-28T07:35:45;2.80;;;2.20;;
4909;SDS011;2470;49.868;8.660;2023-07-28T07:38:14;2.20;;;2.00;;
4909;SDS011;2470;49.868;8.660;2023-07-28T07:40:39;4.75;;;2.30;;
4909;SDS011;2470;49.868;8.660;2023-07-28T07:43:05;2.15;;;1.88;;
4909;SDS011;2470;49.868;8.660;2023-07-28T07:45:30;4.38;;;2.20;;
4909;SDS011;2470;49.868;8.660;2023-07-28T07:47:56;2.92;;;1.90;;
4909;SDS011;2470;49.868;8.660;2023-07-28T07:50:21;3.25;;;2.30;;
4909;SDS011;2470;49.868;8.660;2023-07-28T07:52:47;1.98;;;1.85;;
4909;SDS011;2470;49.868;8.660;2023-07-28T07:55:13;2.80;;;2.17;;
4909;SDS011;2470;49.868;8.660;2023-07-28T07:57:38;2.92;;;2.13;;
4909;SDS011;2470;49.868;8.660;2023-07-28T08:00:05;2.10;;;1.90;;
4909;SDS011;2470;49.868;8.660;2023-07-28T08:02:31;2.08;;;1.80;;
4909;SDS011;2470;49.868;8.660;2023-07-28T08:04:56;1.77;;;1.67;;
4909;SDS011;2470;49.868;8.660;2023-07-28T08:07:22;2.15;;;1.73;;
4909;SDS011;2470;49.868;8.660;2023-07-28T08:09:50;1.58;;;1.48;;
4909;SDS011;2470;49.868;8.660;2023-07-28T08:12:16;2.38;;;1.88;;
4909;SDS011;2470;49.868;8.660;2023-07-28T08:14:42;2.35;;;1.70;;
4909;SDS011;2470;49.868;8.660;2023-07-28T08:17:08;2.20;;;1.75;;
4909;SDS011;2470;49.868;8.660;2023-07-28T08:19:34;2.13;;;1.80;;
4909;SDS011;2470;49.868;8.660;2023-07-28T08:22:01;2.53;;;1.88;;
4909;SDS011;2470;49.868;8.660;2023-07-28T08:24:28;2.65;;;1.50;;
4909;SDS011;2470;49.868;8.660;2023-07-28T08:26:54;2.70;;;2.15;;
4909;SDS011;2470;49.868;8.660;2023-07-28T08:29:19;2.03;;;1.83;;
4909;SDS011;2470;49.868;8.660;2023-07-28T08:31:45;2.15;;;1.90;;
4909;SDS011;2470;49.868;8.660;2023-07-28T08:34:11;2.72;;;2.03;;
4909;SDS011;2470;49.868;8.660;2023-07-28T08:36:37;1.65;;;1.55;;
4909;SDS011;2470;49.868;8.660;2023-07-28T08:39:03;2.70;;;2.03;;
4909;SDS011;2470;49.868;8.660;2023-07-28T08:41:28;1.90;;;1.70;;
4909;SDS011;2470;49.868;8.660;2023-07-28T08:43:54;1.80;;;1.70;;
4909;SDS011;2470;49.868;8.660;2023-07-28T08:46:20;2.08;;;1.65;;
4909;SDS011;2470;49.868;8.660;2023-07-28T08:48:45;1.83;;;1.65;;
4909;SDS011;2470;49.868;8.660;2023-07-28T08:51:12;1.70;;;1.60;;
4909;SDS011;2470;49.868;8.660;2023-07-28T08:53:38;1.50;;;1.40;;
4909;SDS011;2470;49.868;8.660;2023-07-28T08:56:04;2.22;;;1.40;;
4909;SDS011;2470;49.868;8.660;2023-07-28T08:58:30;1.58;;;1.48;;
4909;SDS011;2470;49.868;8.660;2023-07-28T09:00:55;2.53;;;1.60;;
4909;SDS011;2470;49.868;8.660;2023-07-28T09:03:25;1.40;;;1.30;;
4909;SDS011;2470;49.868;8.660;2023-07-28T09:05:53;1.98;;;1.80;;
4909;SDS011;2470;49.868;8.660;2023-07-28T09:08:27;1.48;;;1.30;;
4909;SDS011;2470;49.868;8.660;2023-07-28T09:10:55;1.42;;;1.33;;
4909;SDS011;2470;49.868;8.660;2023-07-28T09:13:20;1.42;;;1.30;;
4909;SDS011;2470;49.868;8.660;2023-07-28T09:15:46;1.20;;;1.10;;
4909;SDS011;2470;49.868;8.660;2023-07-28T09:18:12;1.55;;;1.45;;
4909;SDS011;2470;49.868;8.660;2023-07-28T09:20:40;1.80;;;1.30;;
4909;SDS011;2470;49.868;8.660;2023-07-28T09:23:07;1.55;;;1.42;;
4909;SDS011;2470;49.868;8.660;2023-07-28T09:25:34;5.53;;;1.73;;
4909;SDS011;2470;49.868;8.660;2023-07-28T09:28:00;1.75;;;1.52;;
4909;SDS011;2470;49.868;8.660;2023-07-28T09:30:29;2.03;;;1.50;;
4909;SDS011;2470;49.868;8.660;2023-07-28T09:33:28;2.53;;;2.05;;
4909;SDS011;2470;49.868;8.660;2023-07-28T09:35:55;1.77;;;1.38;;
4909;SDS011;2470;49.868;8.660;2023-07-28T09:38:20;3.80;;;2.15;;
4909;SDS011;2470;49.868;8.660;2023-07-28T09:40:47;2.00;;;1.50;;
4909;SDS011;2470;49.868;8.660;2023-07-28T09:43:14;1.75;;;1.65;;
4909;SDS011;2470;49.868;8.660;2023-07-28T09:45:39;3.65;;;1.63;;
4909;SDS011;2470;49.868;8.660;2023-07-28T09:48:07;3.10;;;1.80;;
4909;SDS011;2470;49.868;8.660;2023-07-28T09:50:35;1.45;;;1.35;;
4909;SDS011;2470;49.868;8.660;2023-07-28T09:53:03;1.65;;;1.42;;
4909;SDS011;2470;49.868;8.660;2023-07-28T09:55:29;1.80;;;1.60;;
4909;SDS011;2470;49.868;8.660;2023-07-28T09:57:55;2.00;;;1.80;;
4909;SDS011;2470;49.868;8.660;2023-07-28T10:00:23;3.60;;;1.55;;
4909;SDS011;2470;49.868;8.660;2023-07-28T10:02:49;1.90;;;1.70;;
4909;SDS011;2470;49.868;8.660;2023-07-28T10:05:15;0.98;;;0.93;;
4909;SDS011;2470;49.868;8.660;2023-07-28T10:07:42;1.38;;;1.27;;
4909;SDS011;2470;49.868;8.660;2023-07-28T10:10:12;1.45;;;1.30;;
4909;SDS011;2470;49.868;8.660;2023-07-28T10:12:39;1.75;;;1.20;;
4909;SDS011;2470;49.868;8.660;2023-07-28T10:15:13;1.73;;;1.30;;
4909;SDS011;2470;49.868;8.660;2023-07-28T10:17:43;1.70;;;1.60;;
4909;SDS011;2470;49.868;8.660;2023-07-28T10:20:29;3.20;;;1.50;;
4909;SDS011;2470;49.868;8.660;2023-07-28T10:23:06;1.30;;;1.20;;
4909;SDS011;2470;49.868;8.660;2023-07-28T10:25:39;2.00;;;1.50;;
4909;SDS011;2470;49.868;8.660;2023-07-28T10:28:26;1.92;;;1.67;;
4909;SDS011;2470;49.868;8.660;2023-07-28T10:30:56;2.13;;;1.40;;
4909;SDS011;2470;49.868;8.660;2023-07-28T10:33:26;1.63;;;1.52;;
4909;SDS011;2470;49.868;8.660;2023-07-28T10:36:08;1.45;;;1.35;;
4909;SDS011;2470;49.868;8.660;2023-07-28T10:38:40;2.88;;;1.77;;
4909;SDS011;2470;49.868;8.660;2023-07-28T10:41:13;2.22;;;1.63;;
4909;SDS011;2470;49.868;8.660;2023-07-28T10:43:42;1.80;;;1.70;;
4909;SDS011;2470;49.868;8.660;2023-07-28T10:46:10;2.55;;;1.15;;
4909;SDS011;2470;49.868;8.660;2023-07-28T10:48:40;1.85;;;1.50;;
4909;SDS011;2470;49.868;8.660;2023-07-28T10:51:07;1.45;;;1.35;;
4909;SDS011;2470;49.868;8.660;2023-07-28T10:53:33;2.20;;;1.55;;
4909;SDS011;2470;49.868;8.660;2023-07-28T10:55:59;4.10;;;1.38;;
4909;SDS011;2470;49.868;8.660;2023-07-28T10:58:27;1.52;;;1.40;;
4909;SDS011;2470;49.868;8.660;2023-07-28T11:00:52;1.70;;;1.60;;
4909;SDS011;2470;49.868;8.660;2023-07-28T11:03:18;1.35;;;1.20;;
4909;SDS011;2470;49.868;8.660;2023-07-28T11:05:45;1.83;;;1.35;;
4909;SDS011;2470;49.868;8.660;2023-07-28T11:08:12;1.70;;;1.33;;
4909;SDS011;2470;49.868;8.660;2023-07-28T11:10:38;1.83;;;1.70;;
4909;SDS011;2470;49.868;8.660;2023-07-28T11:13:05;1.50;;;1.38;;
4909;SDS011;2470;49.868;8.660;2023-07-28T11:15:31;1.73;;;1.50;;
4909;SDS011;2470;49.868;8.660;2023-07-28T11:17:57;3.40;;;1.40;;
4909;SDS011;2470;49.868;8.660;2023-07-28T11:22:53;1.70;;;1.60;;
4909;SDS011;2470;49.868;8.660;2023-07-28T11:25:19;1.33;;;1.23;;
4909;SDS011;2470;49.868;8.660;2023-07-28T11:27:46;3.42;;;1.80;;
4909;SDS011;2470;49.868;8.660;2023-07-28T11:30:12;2.70;;;2.00;;
4909;SDS011;2470;49.868;8.660;2023-07-28T11:32:39;1.33;;;1.20;;
4909;SDS011;2470;49.868;8.660;2023-07-28T11:35:09;1.30;;;1.20;;
4909;SDS011;2470;49.868;8.660;2023-07-28T11:37:37;2.85;;;1.55;;
4909;SDS011;2470;49.868;8.660;2023-07-28T11:40:04;1.20;;;1.10;;
4909;SDS011;2470;49.868;8.660;2023-07-28T11:42:35;1.58;;;1.48;;
4909;SDS011;2470;49.868;8.660;2023-07-28T11:45:05;2.08;;;1.40;;
4909;SDS011;2470;49.868;8.660;2023-07-28T11:47:32;1.40;;;1.30;;
4909;SDS011;2470;49.868;8.660;2023-07-28T11:49:58;1.67;;;1.50;;
4909;SDS011;2470;49.868;8.660;2023-07-28T11:52:24;1.67;;;1.45;;
4909;SDS011;2470;49.868;8.660;2023-07-28T11:54:54;1.70;;;1.48;;
4909;SDS011;2470;49.868;8.660;2023-07-28T11:57:19;2.42;;;1.70;;
4909;SDS011;2470;49.868;8.660;2023-07-28T11:59:46;6.45;;;2.03;;
4909;SDS011;2470;49.868;8.660;2023-07-28T12:02:11;1.45;;;1.33;;
4909;SDS011;2470;49.868;8.660;2023-07-28T12:04:38;1.83;;;1.40;;
4909;SDS011;2470;49.868;8.660;2023-07-28T12:07:14;1.33;;;1.23;;
4909;SDS011;2470;49.868;8.660;2023-07-28T12:12:19;1.42;;;1.30;;
4909;SDS011;2470;49.868;8.660;2023-07-28T12:14:46;1.90;;;1.50;;
4909;SDS011;2470;49.868;8.660;2023-07-28T12:17:13;1.60;;;1.50;;
4909;SDS011;2470;49.868;8.660;2023-07-28T12:19:57;1.60;;;1.25;;
4909;SDS011;2470;49.868;8.660;2023-07-28T12:22:39;1.30;;;1.20;;
4909;SDS011;2470;49.868;8.660;2023-07-28T12:25:05;2.25;;;1.70;;
4909;SDS011;2470;49.868;8.660;2023-07-28T12:27:32;1.80;;;1.45;;
4909;SDS011;2470;49.868;8.660;2023-07-28T12:29:57;1.40;;;1.30;;
4909;SDS011;2470;49.868;8.660;2023-07-28T12:32:23;1.42;;;1.20;;
4909;SDS011;2470;49.868;8.660;2023-07-28T12:34:49;1.42;;;1.33;;
4909;SDS011;2470;49.868;8.660;2023-07-28T12:37:15;3.42;;;1.65;;
4909;SDS011;2470;49.868;8.660;2023-07-28T12:39:41;2.08;;;1.30;;
4909;SDS011;2470;49.868;8.660;2023-07-28T12:42:08;2.90;;;1.30;;
4909;SDS011;2470;49.868;8.660;2023-07-28T12:44:35;2.17;;;1.50;;
4909;SDS011;2470;49.868;8.660;2023-07-28T12:47:01;1.73;;;1.50;;
4909;SDS011;2470;49.868;8.660;2023-07-28T12:49:27;2.10;;;1.52;;
4909;SDS011;2470;49.868;8.660;2023-07-28T12:51:55;2.03;;;1.38;;
4909;SDS011;2470;49.868;8.660;2023-07-28T12:54:23;1.40;;;1.30;;
4909;SDS011;2470;49.868;8.660;2023-07-28T12:56:49;1.55;;;1.13;;
4909;SDS011;2470;49.868;8.660;2023-07-28T12:59:16;1.65;;;1.35;;
4909;SDS011;2470;49.868;8.660;2023-07-28T13:01:41;2.03;;;1.63;;
4909;SDS011;2470;49.868;8.660;2023-07-28T13:04:07;3.00;;;2.08;;
4909;SDS011;2470;49.868;8.660;2023-07-28T13:06:32;1.77;;;1.52;;
4909;SDS011;2470;49.868;8.660;2023-07-28T13:08:58;1.60;;;1.50;;
4909;SDS011;2470;49.868;8.660;2023-07-28T13:11:24;2.22;;;2.03;;
4909;SDS011;2470;49.868;8.660;2023-07-28T13:13:49;1.65;;;1.40;;
4909;SDS011;2470;49.868;8.660;2023-07-28T13:16:15;1.23;;;1.13;;
4909;SDS011;2470;49.868;8.660;2023-07-28T13:18:42;1.20;;;1.10;;
4909;SDS011;2470;49.868;8.660;2023-07-28T13:21:08;1.65;;;1.55;;
4909;SDS011;2470;49.868;8.660;2023-07-28T13:23:33;1.73;;;1.63;;
4909;SDS011;2470;49.868;8.660;2023-07-28T13:25:59;1.50;;;1.40;;
4909;SDS011;2470;49.868;8.660;2023-07-28T13:28:24;1.60;;;1.50;;
4909;SDS011;2470;49.868;8.660;2023-07-28T13:30:50;2.38;;;1.90;;
4909;SDS011;2470;49.868;8.660;2023-07-28T13:33:16;1.58;;;1.48;;
4909;SDS011;2470;49.868;8.660;2023-07-28T13:35:42;15.25;;;2.05;;
4909;SDS011;2470;49.868;8.660;2023-07-28T13:38:08;2.10;;;1.40;;
4909;SDS011;2470;49.868;8.660;2023-07-28T13:40:34;3.17;;;1.50;;
4909;SDS011;2470;49.868;8.660;2023-07-28T13:43:00;1.40;;;1.30;;
4909;SDS011;2470;49.868;8.660;2023-07-28T13:45:26;1.40;;;1.30;;
4909;SDS011;2470;49.868;8.660;2023-07-28T13:47:51;1.40;;;1.30;;
4909;SDS011;2470;49.868;8.660;2023-07-28T13:50:17;1.75;;;1.58;;
4909;SDS011;2470;49.868;8.660;2023-07-28T13:52:42;4.70;;;1.33;;
4909;SDS011;2470;49.868;8.660;2023-07-28T13:55:08;1.42;;;1.33;;
4909;SDS011;2470;49.868;8.660;2023-07-28T13:57:33;1.50;;;1.40;;
4909;SDS011;2470;49.868;8.660;2023-07-28T13:59:59;1.88;;;1.60;;
4909;SDS011;2470;49.868;8.660;2023-07-28T14:02:25;1.73;;;1.52;;
4909;SDS011;2470;49.868;8.660;2023-07-28T14:04:50;1.50;;;1.33;;
4909;SDS011;2470;49.868;8.660;2023-07-28T14:07:16;5.80;;;1.55;;
4909;SDS011;2470;49.868;8.660;2023-07-28T14:09:41;2.03;;;1.75;;
4909;SDS011;2470;49.868;8.660;2023-07-28T14:12:07;1.90;;;1.73;;
4909;SDS011;2470;49.868;8.660;2023-07-28T14:14:33;1.40;;;1.30;;
4909;SDS011;2470;49.868;8.660;2023-07-28T14:16:58;1.63;;;1.52;;
4909;SDS011;2470;49.868;8.660;2023-07-28T14:19:24;1.42;;;1.33;;
4909;SDS011;2470;49.868;8.660;2023-07-28T14:21:49;1.38;;;1.27;;
4909;SDS011;2470;49.868;8.660;2023-07-28T14:24:15;1.65;;;1.52;;
4909;SDS011;2470;49.868;8.660;2023-07-28T14:26:40;2.65;;;1.98;;
4909;SDS011;2470;49.868;8.660;2023-07-28T14:29:06;1.67;;;1.58;;
4909;SDS011;2470;49.868;8.660;2023-07-28T14:31:31;2.08;;;1.88;;
4909;SDS011;2470;49.868;8.660;2023-07-28T14:33:57;1.35;;;1.25;;
4909;SDS011;2470;49.868;8.660;2023-07-28T14:36:22;1.80;;;1.50;;
4909;SDS011;2470;49.868;8.660;2023-07-28T14:38:48;1.38;;;1.27;;
4909;SDS011;2470;49.868;8.660;2023-07-28T14:41:14;4.80;;;1.40;;
4909;SDS011;2470;49.868;8.660;2023-07-28T14:43:39;1.27;;;1.17;;
4909;SDS011;2470;49.868;8.660;2023-07-28T14:46:05;1.65;;;1.50;;
4909;SDS011;2470;49.868;8.660;2023-07-28T14:48:30;2.75;;;2.10;;
4909;SDS011;2470;49.868;8.660;2023-07-28T14:50:56;3.67;;;2.67;;
4909;SDS011;2470;49.868;8.660;2023-07-28T14:55:57;2.83;;;1.95;;
4909;SDS011;2470;49.868;8.660;2023-07-28T14:58:24;2.22;;;1.80;;
4909;SDS011;2470;49.868;8.660;2023-07-28T15:00:49;3.00;;;1.45;;
4909;SDS011;2470;49.868;8.660;2023-07-28T15:03:15;2.55;;;1.45;;
4909;SDS011;2470;49.868;8.660;2023-07-28T15:05:40;1.63;;;1.52;;
4909;SDS011;2470;49.868;8.660;2023-07-28T15:08:06;1.75;;;1.35;;
4909;SDS011;2470;49.868;8.660;2023-07-28T15:10:31;1.38;;;1.27;;
4909;SDS011;2470;49.868;8.660;2023-07-28T15:12:57;1.55;;;1.45;;
4909;SDS011;2470;49.868;8.660;2023-07-28T15:15:23;1.60;;;1.50;;
4909;SDS011;2470;49.868;8.660;2023-07-28T15:17:48;1.77;;;1.42;;
4909;SDS011;2470;49.868;8.660;2023-07-28T15:20:14;1.70;;;1.60;;
4909;SDS011;2470;49.868;8.660;2023-07-28T15:22:44;3.70;;;1.70;;
4909;SDS011;2470;49.868;8.660;2023-07-28T15:25:11;1.48;;;1.35;;